createdAt,value
2022-08-01T00:00:13.763Z,18
2022-08-01T00:03:11.557Z,18
2022-08-01T00:06:11.326Z,18
2022-08-01T00:09:25.928Z,18
2022-08-01T00:12:12.021Z,18.1
2022-08-01T00:15:11.403Z,18.1
2022-08-01T00:18:11.381Z,18.3
2022-08-01T00:21:11.317Z,18.3
2022-08-01T00:24:20.019Z,18.3
2022-08-01T00:27:11.336Z,18.3
2022-08-01T00:30:25.763Z,18.3
2022-08-01T00:33:11.349Z,18.3
2022-08-01T00:36:11.492Z,18.3
2022-08-01T00:39:11.320Z,18.3
2022-08-01T00:42:12.100Z,18.3
2022-08-01T00:45:11.391Z,18.3
2022-08-01T00:48:11.371Z,18.3
2022-08-01T00:51:11.374Z,18.4
2022-08-01T00:54:19.037Z,18.4
2022-08-01T01:00:12.192Z,18.4
2022-08-01T01:03:11.345Z,18.4
2022-08-01T01:06:11.391Z,18.4
2022-08-01T01:09:14.236Z,18.4
2022-08-01T01:12:12.571Z,18.5
2022-08-01T01:15:11.386Z,18.5
2022-08-01T01:18:11.382Z,18.5
2022-08-01T01:21:11.388Z,18.6
2022-08-01T01:24:11.417Z,18.6
2022-08-01T01:27:11.376Z,18.6
2022-08-01T01:30:12.157Z,18.6
2022-08-01T01:33:11.397Z,18.6
2022-08-01T01:36:18.184Z,18.6
2022-08-01T01:39:11.390Z,18.5
2022-08-01T01:42:15.317Z,18.5
2022-08-01T01:45:11.432Z,18.4
2022-08-01T01:48:11.406Z,18.4
2022-08-01T01:51:11.387Z,18.3
2022-08-01T01:54:11.365Z,18.1
2022-08-01T01:57:11.414Z,18.1
2022-08-01T02:00:11.449Z,18.1
2022-08-01T02:03:11.983Z,18.1
2022-08-01T02:06:11.359Z,18.1
2022-08-01T02:09:13.576Z,18.3
2022-08-01T02:12:21.274Z,18.3
2022-08-01T02:15:11.407Z,18.4
2022-08-01T02:18:11.587Z,18.4
2022-08-01T02:21:11.394Z,18.4
2022-08-01T02:24:16.915Z,18.5
2022-08-01T02:27:11.536Z,18.4
2022-08-01T02:30:11.401Z,18.4
2022-08-01T02:33:20.066Z,18.4
2022-08-01T02:36:44.064Z,18.4
2022-08-01T02:39:11.425Z,18.4
2022-08-01T02:42:12.885Z,18.4
2022-08-01T02:45:11.391Z,18.4
2022-08-01T02:48:11.420Z,18.3
2022-08-01T02:51:13.594Z,18.3
2022-08-01T02:54:11.374Z,18.4
2022-08-01T02:57:19.968Z,18.3
2022-08-01T03:00:12.437Z,18.3
2022-08-01T03:03:11.338Z,18.3
2022-08-01T03:06:11.385Z,18.4
2022-08-01T03:09:11.390Z,18.4
2022-08-01T03:12:12.500Z,18.4
2022-08-01T03:15:14.140Z,18.4
2022-08-01T03:18:11.453Z,18.4
2022-08-01T03:21:13.289Z,18.4
2022-08-01T03:24:11.369Z,18.4
2022-08-01T03:27:11.308Z,18.4
2022-08-01T03:30:11.339Z,18.4
2022-08-01T03:33:16.604Z,18.5
2022-08-01T03:36:11.361Z,18.5
2022-08-01T03:39:11.472Z,18.5
2022-08-01T03:42:12.565Z,18.5
2022-08-01T03:45:15.848Z,18.4
2022-08-01T03:48:11.387Z,18.4
2022-08-01T03:51:11.386Z,18.4
2022-08-01T03:54:11.352Z,18.4
2022-08-01T03:57:37.241Z,18.4
2022-08-01T04:00:11.423Z,18.4
2022-08-01T04:03:11.351Z,18.4
2022-08-01T04:06:12.709Z,18.5
2022-08-01T04:09:17.430Z,18.5
2022-08-01T04:12:21.019Z,18.6
2022-08-01T04:15:11.385Z,18.6
2022-08-01T04:18:11.336Z,18.6
2022-08-01T04:21:11.616Z,18.6
2022-08-01T04:24:11.359Z,18.6
2022-08-01T04:27:11.339Z,18.6
2022-08-01T04:30:11.393Z,18.5
2022-08-01T04:33:11.313Z,18.6
2022-08-01T04:36:15.708Z,18.6
2022-08-01T04:39:11.354Z,18.5
2022-08-01T04:42:12.337Z,18.5
2022-08-01T04:45:11.531Z,18.5
2022-08-01T04:48:11.320Z,18.5
2022-08-01T04:51:11.331Z,18.5
2022-08-01T04:54:11.369Z,18.6
2022-08-01T04:57:11.391Z,18.8
2022-08-01T05:00:11.323Z,19
2022-08-01T05:03:11.352Z,19.1
2022-08-01T05:06:11.362Z,19.4
2022-08-01T05:09:11.345Z,19.4
2022-08-01T05:12:12.496Z,19.4
2022-08-01T05:15:17.757Z,19.6
2022-08-01T05:18:12.903Z,19.5
2022-08-01T05:21:11.401Z,19.8
2022-08-01T05:24:14.021Z,20
2022-08-01T05:27:18.520Z,20.4
2022-08-01T05:30:11.669Z,20.4
2022-08-01T05:33:11.359Z,20.3
2022-08-01T05:36:11.362Z,20.6
2022-08-01T05:39:11.366Z,21.4
2022-08-01T05:42:12.678Z,21.9
2022-08-01T05:45:11.351Z,21.8
2022-08-01T05:48:11.354Z,21.9
2022-08-01T05:51:11.304Z,21.5
2022-08-01T05:54:11.353Z,21.5
2022-08-01T05:57:13.288Z,21.9
2022-08-01T06:00:12.203Z,22.1
2022-08-01T06:03:11.295Z,22.4
2022-08-01T06:06:11.379Z,22.9
2022-08-01T06:09:11.382Z,23.3
2022-08-01T06:12:12.655Z,24.1
2022-08-01T06:15:11.352Z,24.5
2022-08-01T06:18:11.369Z,25
2022-08-01T06:21:11.340Z,25.3
2022-08-01T06:24:11.350Z,25.6
2022-08-01T06:27:30.013Z,26.2
2022-08-01T06:30:11.394Z,25.9
2022-08-01T06:33:11.360Z,26.2
2022-08-01T06:36:11.352Z,26.1
2022-08-01T06:39:11.343Z,25.9
2022-08-01T06:42:12.422Z,25.6
2022-08-01T06:45:11.344Z,26.2
2022-08-01T06:48:11.378Z,25.6
2022-08-01T06:51:11.510Z,24.7
2022-08-01T06:54:11.296Z,24.3
2022-08-01T06:57:11.406Z,24
2022-08-01T07:00:11.432Z,23.9
2022-08-01T07:03:11.363Z,24
2022-08-01T07:06:11.333Z,23.9
2022-08-01T07:09:23.488Z,24.1
2022-08-01T07:12:12.322Z,24.5
2022-08-01T07:15:11.355Z,27.5
2022-08-01T07:18:11.311Z,31.2
2022-08-01T07:21:52.389Z,30.4
2022-08-01T07:24:24.926Z,29.1
2022-08-01T07:27:34.958Z,27
2022-08-01T07:30:11.436Z,25.1
2022-08-01T07:33:11.364Z,24
2022-08-01T07:36:13.274Z,22.9
2022-08-01T07:39:11.684Z,22
2022-08-01T07:42:20.394Z,21.5
2022-08-01T07:45:11.379Z,21.4
2022-08-01T07:48:16.720Z,21.4
2022-08-01T07:51:11.343Z,21.6
2022-08-01T07:54:11.313Z,22
2022-08-01T07:57:11.357Z,22.6
2022-08-01T08:00:11.326Z,23.4
2022-08-01T08:03:11.345Z,24.5
2022-08-01T08:06:11.540Z,26.2
2022-08-01T08:09:11.373Z,28.3
2022-08-01T08:12:13.161Z,29.5
2022-08-01T08:15:11.913Z,30
2022-08-01T08:18:11.400Z,29.3
2022-08-01T08:21:17.575Z,30
2022-08-01T08:24:14.914Z,31.1
2022-08-01T08:27:11.324Z,31.2
2022-08-01T08:30:11.484Z,30.6
2022-08-01T08:33:20.071Z,31.1
2022-08-01T08:36:14.231Z,32
2022-08-01T08:39:11.358Z,32.7
2022-08-01T08:42:12.191Z,33.4
2022-08-01T08:45:20.443Z,33.7
2022-08-01T08:48:11.417Z,33.1
2022-08-01T08:51:11.359Z,32.7
2022-08-01T08:54:11.398Z,32.5
2022-08-01T08:57:11.791Z,31.8
2022-08-01T09:00:11.431Z,31.2
2022-08-01T09:03:14.579Z,31.5
2022-08-01T09:06:11.428Z,32.5
2022-08-01T09:09:11.397Z,34
2022-08-01T09:12:12.175Z,34.9
2022-08-01T09:15:11.334Z,36.7
2022-08-01T09:18:11.358Z,39.9
2022-08-01T09:21:11.300Z,41.5
2022-08-01T09:24:11.343Z,42.5
2022-08-01T09:27:15.000Z,40.1
2022-08-01T09:30:28.122Z,36.7
2022-08-01T09:33:34.901Z,34.2
2022-08-01T09:36:17.393Z,33.4
2022-08-01T09:39:14.746Z,32.6
2022-08-01T09:42:13.832Z,32.2
2022-08-01T09:45:25.885Z,32
2022-08-01T09:48:17.149Z,30.5
2022-08-01T09:54:12.463Z,27.9
2022-08-01T09:57:12.135Z,27.8
2022-08-01T10:00:44.114Z,27.9
2022-08-01T10:03:26.201Z,27.9
2022-08-01T10:06:14.480Z,28.7
2022-08-01T10:09:15.656Z,30.1
2022-08-01T10:12:18.179Z,32.1
2022-08-01T10:15:11.739Z,33.5
2022-08-01T10:18:30.678Z,34.4
2022-08-01T10:21:17.519Z,35.5
2022-08-01T10:24:18.798Z,39.4
2022-08-01T10:27:41.736Z,42.6
2022-08-01T10:30:35.803Z,44.6
2022-08-01T10:33:53.260Z,46.4
2022-08-01T10:36:14.787Z,48.4
2022-08-01T10:39:12.343Z,50.1
2022-08-01T10:42:20.308Z,45.9
2022-08-01T10:45:16.816Z,41.9
2022-08-01T10:48:14.984Z,38
2022-08-01T10:51:51.746Z,35
2022-08-01T10:54:16.492Z,33
2022-08-01T10:57:15.088Z,31.5
2022-08-01T11:00:13.695Z,31.4
2022-08-01T11:03:12.629Z,32.4
2022-08-01T11:06:15.077Z,34.1
2022-08-01T11:09:18.686Z,35
2022-08-01T11:12:28.113Z,34.1
2022-08-01T11:15:13.290Z,33.4
2022-08-01T11:18:17.419Z,32.6
2022-08-01T11:24:12.304Z,33.6
2022-08-01T11:27:13.872Z,34.9
2022-08-01T11:30:23.521Z,36.4
2022-08-01T11:33:24.128Z,38.4
2022-08-01T11:36:11.578Z,39.1
2022-08-01T11:39:21.802Z,41.1
2022-08-01T11:42:11.729Z,41.7
2022-08-01T11:45:15.481Z,41.5
2022-08-01T11:48:12.504Z,41.1
2022-08-01T11:51:25.718Z,41.2
2022-08-01T11:54:13.603Z,40.9
2022-08-01T11:57:14.493Z,40.1
2022-08-01T12:00:22.131Z,40.1
2022-08-01T12:03:35.789Z,40.8
2022-08-01T12:06:12.252Z,40.1
2022-08-01T12:09:16.512Z,39.6
2022-08-01T12:12:11.396Z,39.5
2022-08-01T12:15:14.340Z,37.9
2022-08-01T12:18:11.436Z,36.1
2022-08-01T12:21:11.338Z,35.5
2022-08-01T12:24:11.334Z,35.7
2022-08-01T12:27:12.153Z,35.7
2022-08-01T12:30:13.111Z,35.7
2022-08-01T12:33:11.352Z,35.6
2022-08-01T12:36:16.845Z,35.7
2022-08-01T12:39:11.376Z,36
2022-08-01T12:42:11.353Z,36.6
2022-08-01T12:45:11.409Z,37.1
2022-08-01T12:48:11.395Z,37
2022-08-01T12:51:11.296Z,37.2
2022-08-01T12:54:11.382Z,36.5
2022-08-01T12:57:12.334Z,35.9
2022-08-01T13:00:11.475Z,34.6
2022-08-01T13:03:11.342Z,33.5
2022-08-01T13:06:11.395Z,32.7
2022-08-01T13:09:11.371Z,32.6
2022-08-01T13:12:17.380Z,32.9
2022-08-01T13:15:11.360Z,33.7
2022-08-01T13:18:11.415Z,35.5
2022-08-01T13:21:11.364Z,39.2
2022-08-01T13:24:14.379Z,42.1
2022-08-01T13:27:11.948Z,41
2022-08-01T13:30:13.097Z,40.2
2022-08-01T13:33:11.379Z,40.1
2022-08-01T13:36:11.389Z,39.7
2022-08-01T13:39:11.398Z,38.5
2022-08-01T13:42:12.571Z,37
2022-08-01T13:45:24.524Z,35.7
2022-08-01T13:48:36.547Z,35.4
2022-08-01T13:51:32.960Z,35.9
2022-08-01T13:54:11.429Z,37.9
2022-08-01T13:57:11.472Z,39.5
2022-08-01T14:00:11.484Z,38.4
2022-08-01T14:03:11.352Z,37.4
2022-08-01T14:06:11.420Z,36.6
2022-08-01T14:10:04.250Z,35.9
2022-08-01T14:12:14.798Z,36.1
2022-08-01T14:15:12.388Z,35.9
2022-08-01T14:18:13.948Z,35.7
2022-08-01T14:21:16.697Z,35.9
2022-08-01T14:24:11.311Z,37.7
2022-08-01T14:27:11.381Z,37.5
2022-08-01T14:30:14.972Z,36.7
2022-08-01T14:33:11.418Z,36.5
2022-08-01T14:36:51.603Z,35.6
2022-08-01T14:39:20.990Z,37.9
2022-08-01T14:42:15.269Z,40.5
2022-08-01T14:45:11.373Z,42.1
2022-08-01T14:48:11.341Z,44.1
2022-08-01T14:51:11.341Z,42
2022-08-01T14:54:14.159Z,41.5
2022-08-01T14:57:11.352Z,39.7
2022-08-01T15:00:11.583Z,38.6
2022-08-01T15:03:11.328Z,39.6
2022-08-01T15:06:11.387Z,40.4
2022-08-01T15:09:18.801Z,39.2
2022-08-01T15:12:12.234Z,38.5
2022-08-01T15:15:11.322Z,40.4
2022-08-01T15:18:11.362Z,38.5
2022-08-01T15:21:34.542Z,38
2022-08-01T15:24:11.325Z,36.2
2022-08-01T15:27:11.370Z,35.5
2022-08-01T15:30:11.331Z,35.4
2022-08-01T15:33:11.427Z,35.1
2022-08-01T15:36:17.654Z,34.9
2022-08-01T15:39:11.330Z,34.4
2022-08-01T15:42:12.436Z,34
2022-08-01T15:45:47.980Z,33.2
2022-08-01T15:48:11.326Z,32.7
2022-08-01T15:51:11.344Z,32.4
2022-08-01T15:54:17.040Z,32.6
2022-08-01T15:57:12.050Z,35.4
2022-08-01T16:00:11.404Z,36
2022-08-01T16:03:11.316Z,35.1
2022-08-01T16:06:11.424Z,34.7
2022-08-01T16:09:21.248Z,35
2022-08-01T16:12:12.541Z,36.6
2022-08-01T16:15:11.358Z,37.6
2022-08-01T16:18:13.174Z,38.2
2022-08-01T16:21:11.284Z,36.9
2022-08-01T16:24:11.349Z,36.4
2022-08-01T16:27:12.033Z,35.4
2022-08-01T16:30:11.377Z,36.1
2022-08-01T16:36:21.696Z,37.2
2022-08-01T16:39:12.149Z,36.1
2022-08-01T16:42:12.860Z,34.7
2022-08-01T16:45:21.460Z,35
2022-08-01T16:48:16.530Z,34.2
2022-08-01T16:51:11.374Z,34.1
2022-08-01T16:54:31.734Z,32.4
2022-08-01T16:57:21.100Z,31.1
2022-08-01T17:00:12.179Z,30.3
2022-08-01T17:06:11.359Z,29.3
2022-08-01T17:09:11.378Z,29.1
2022-08-01T17:12:11.402Z,28.9
2022-08-01T17:15:11.364Z,28.6
2022-08-01T17:18:13.529Z,28.5
2022-08-01T17:21:11.371Z,28.5
2022-08-01T17:24:11.589Z,28.5
2022-08-01T17:27:18.718Z,28.5
2022-08-01T17:30:11.453Z,28.5
2022-08-01T17:33:11.358Z,28.5
2022-08-01T17:36:12.226Z,28.4
2022-08-01T17:39:11.368Z,28.4
2022-08-01T17:42:11.395Z,28.3
2022-08-01T17:45:47.646Z,28
2022-08-01T17:48:12.035Z,27.4
2022-08-01T17:51:11.588Z,26.9
2022-08-01T17:54:11.376Z,26.2
2022-08-01T17:57:16.909Z,25.5
2022-08-01T18:00:11.358Z,24.9
2022-08-01T18:03:20.305Z,24.5
2022-08-01T18:06:12.176Z,24
2022-08-01T18:09:18.117Z,23.6
2022-08-01T18:12:17.751Z,23.3
2022-08-01T18:15:17.241Z,23
2022-08-01T18:18:11.341Z,22.6
2022-08-01T18:21:11.331Z,22.2
2022-08-01T18:24:11.358Z,22
2022-08-01T18:27:12.432Z,21.6
2022-08-01T18:30:11.364Z,21.4
2022-08-01T18:33:11.320Z,21.2
2022-08-01T18:36:42.557Z,21
2022-08-01T18:39:17.129Z,21
2022-08-01T18:42:11.341Z,20.9
2022-08-01T18:45:11.353Z,20.9
2022-08-01T18:48:11.306Z,20.9
2022-08-01T18:51:15.968Z,20.9
2022-08-01T18:54:11.481Z,20.9
2022-08-01T18:57:12.230Z,20.8
2022-08-01T19:00:11.503Z,20.8
2022-08-01T19:03:12.470Z,20.8
2022-08-01T19:06:11.380Z,20.8
2022-08-01T19:09:13.716Z,20.6
2022-08-01T19:12:11.336Z,20.6
2022-08-01T19:15:16.214Z,20.6
2022-08-01T19:18:11.318Z,20.5
2022-08-01T19:21:11.343Z,20.5
2022-08-01T19:24:11.319Z,20.4
2022-08-01T19:27:20.423Z,20.4
2022-08-01T19:30:11.343Z,20.3
2022-08-01T19:33:11.431Z,20.3
2022-08-01T19:36:11.385Z,20.1
2022-08-01T19:39:12.042Z,20
2022-08-01T19:42:11.403Z,19.9
2022-08-01T19:45:11.287Z,19.8
2022-08-01T19:48:11.359Z,19.5
2022-08-01T19:51:11.371Z,19.4
2022-08-01T19:54:11.380Z,19.1
2022-08-01T19:57:12.685Z,18.9
2022-08-01T20:00:27.856Z,18.8
2022-08-01T20:03:11.868Z,18.5
2022-08-01T20:06:11.364Z,18.4
2022-08-01T20:09:11.323Z,18.3
2022-08-01T20:12:11.368Z,18.1
2022-08-01T20:15:11.342Z,18
2022-08-01T20:18:11.366Z,17.9
2022-08-01T20:21:11.318Z,17.9
2022-08-01T20:24:13.997Z,17.8
2022-08-01T20:27:12.827Z,17.9
2022-08-01T20:30:11.489Z,17.8
2022-08-01T20:33:11.322Z,17.8
2022-08-01T20:36:32.730Z,17.6
2022-08-01T20:39:23.633Z,17.5
2022-08-01T20:42:11.527Z,17.5
2022-08-01T20:45:14.223Z,17.4
2022-08-01T20:48:11.390Z,17.4
2022-08-01T20:51:11.726Z,17.2
2022-08-01T20:54:11.339Z,17.2
2022-08-01T20:57:12.356Z,17.1
2022-08-01T21:00:11.593Z,17
2022-08-01T21:03:11.359Z,16.9
2022-08-01T21:06:11.385Z,16.9
2022-08-01T21:09:11.422Z,16.8
2022-08-01T21:12:13.149Z,16.8
2022-08-01T21:15:11.382Z,16.6
2022-08-01T21:18:11.387Z,16.5
2022-08-01T21:21:16.551Z,16.4
2022-08-01T21:24:11.384Z,16.4
2022-08-01T21:27:12.006Z,16.3
2022-08-01T21:30:12.730Z,16.3
2022-08-01T21:33:11.364Z,16.1
2022-08-01T21:36:17.469Z,16
2022-08-01T21:39:11.303Z,15.9
2022-08-01T21:42:30.235Z,15.9
2022-08-01T21:45:11.441Z,15.8
2022-08-01T21:48:11.382Z,15.6
2022-08-01T21:51:12.686Z,15.6
2022-08-01T21:54:22.419Z,15.6
2022-08-01T21:57:11.342Z,15.5
2022-08-01T22:00:11.714Z,15.5
2022-08-01T22:03:14.810Z,15.4
2022-08-01T22:06:11.334Z,15.4
2022-08-01T22:09:11.380Z,15.3
2022-08-01T22:12:18.593Z,15.3
2022-08-01T22:15:11.349Z,15.1
2022-08-01T22:18:11.314Z,15
2022-08-01T22:21:11.362Z,15
2022-08-01T22:24:11.361Z,14.9
2022-08-01T22:27:11.361Z,14.7
2022-08-01T22:30:11.361Z,14.7
2022-08-01T22:33:27.762Z,14.6
2022-08-01T22:36:11.287Z,14.5
2022-08-01T22:39:12.301Z,14.4
2022-08-01T22:42:13.581Z,14.3
2022-08-01T22:45:11.447Z,14.1
2022-08-01T22:48:11.309Z,14
2022-08-01T22:51:11.370Z,13.9
2022-08-01T22:54:11.265Z,13.8
2022-08-01T22:57:16.698Z,13.6
2022-08-01T23:00:11.394Z,13.5
2022-08-01T23:03:12.302Z,13.4
2022-08-01T23:06:11.348Z,13.4
2022-08-01T23:09:11.394Z,13.3
2022-08-01T23:12:12.293Z,13.1
2022-08-01T23:15:11.342Z,13.1
2022-08-01T23:18:12.132Z,13
2022-08-01T23:21:11.285Z,13
2022-08-01T23:24:11.392Z,12.9
2022-08-01T23:27:11.299Z,12.9
2022-08-01T23:30:11.366Z,12.8
2022-08-01T23:33:11.335Z,12.8
2022-08-01T23:36:11.361Z,12.6
2022-08-01T23:39:11.401Z,12.6
2022-08-01T23:42:19.313Z,12.5
2022-08-01T23:45:11.292Z,12.5
2022-08-01T23:48:11.325Z,12.5
2022-08-01T23:51:21.450Z,12.4
2022-08-01T23:54:12.907Z,12.4
2022-08-01T23:57:21.416Z,12.2
